Time;durP1;ratioP1;P1;durP2;ratioP2;P2;SDS_P1;SDS_P2;PMS_P1;PMS_P2;Temp;Humidity;BMP_temperature;BMP_pressure;BME280_temperature;BME280_humidity;BME280_pressure;Samples;Min_cycle;Max_cycle;Signal;HPM_P1;HPM_P2
2022/05/24 00:00:26;;;;;;;8.02;5.15;;;13.90;99.90;;;;;;4956978;28;93913;-35
2022/05/24 00:02:52;;;;;;;7.53;5.53;;;13.90;99.90;;;;;;4957876;28;93799;-37
2022/05/24 00:05:20;;;;;;;5.95;5.35;;;13.90;99.90;;;;;;4958334;28;93743;-34
2022/05/24 00:07:46;;;;;;;5.73;5.13;;;13.80;99.90;;;;;;4956966;28;95618;-36
2022/05/24 00:10:17;;;;;;;5.82;5.22;;;13.80;99.90;;;;;;4957674;28;93211;-38
2022/05/24 00:12:42;;;;;;;6.43;5.82;;;13.80;99.90;;;;;;4957451;28;93441;-36
2022/05/24 00:15:27;;;;;;;7.90;6.00;;;13.80;99.90;;;;;;4957622;28;92554;-36
2022/05/24 00:18:17;;;;;;;7.00;6.40;;;13.70;99.90;;;;;;4956577;28;96261;-38
2022/05/24 00:20:47;;;;;;;9.45;6.55;;;13.80;99.90;;;;;;4957828;28;95679;-35
2022/05/24 00:23:13;;;;;;;7.20;5.80;;;13.70;99.90;;;;;;4958544;28;94536;-36
2022/05/24 00:25:43;;;;;;;9.05;5.30;;;13.70;99.90;;;;;;4957268;28;92482;-37
2022/05/24 00:28:10;;;;;;;7.10;5.78;;;13.70;99.90;;;;;;4956980;28;95276;-33
2022/05/24 00:30:37;;;;;;;8.70;5.78;;;13.70;99.90;;;;;;4957223;28;94499;-39
2022/05/24 00:33:03;;;;;;;7.13;5.20;;;13.70;99.90;;;;;;4958054;28;93486;-34
2022/05/24 00:35:29;;;;;;;6.93;5.85;;;13.70;99.90;;;;;;4958035;28;93031;-37
2022/05/24 00:37:55;;;;;;;6.78;6.05;;;13.70;99.90;;;;;;4957459;28;94607;-36
2022/05/24 00:40:46;;;;;;;7.00;5.70;;;13.60;99.90;;;;;;4957320;28;96272;-35
2022/05/24 00:43:26;;;;;;;9.85;6.88;;;13.70;99.90;;;;;;4957736;28;93152;-35
2022/05/24 00:45:56;;;;;;;8.93;6.03;;;13.60;99.90;;;;;;4957403;28;93442;-39
2022/05/24 00:48:33;;;;;;;5.28;4.93;;;13.70;99.90;;;;;;4995328;22;94912;-36
2022/05/24 00:51:01;;;;;;;8.02;4.97;;;13.70;99.90;;;;;;4939461;28;94669;-35
2022/05/24 00:53:35;;;;;;;5.78;5.18;;;13.70;99.90;;;;;;4938214;28;92544;-34
2022/05/24 00:56:15;;;;;;;8.35;5.57;;;13.60;99.90;;;;;;4937627;28;94737;-40
2022/05/24 00:58:55;;;;;;;6.35;5.15;;;13.70;99.90;;;;;;4936924;28;94793;-36
2022/05/24 01:01:41;;;;;;;5.10;4.63;;;13.70;99.90;;;;;;4938275;28;96042;-35
2022/05/24 01:04:09;;;;;;;6.82;5.10;;;13.70;99.90;;;;;;4938338;28;93464;-38
2022/05/24 01:06:35;;;;;;;7.47;4.28;;;13.70;99.90;;;;;;4937636;28;93236;-35
2022/05/24 01:09:09;;;;;;;4.60;4.05;;;13.70;99.90;;;;;;4937289;28;95876;-37
2022/05/24 01:11:41;;;;;;;7.78;5.93;;;13.60;99.90;;;;;;4937361;28;95672;-40
2022/05/24 01:14:09;;;;;;;7.47;6.72;;;13.70;99.90;;;;;;4937464;28;93130;-35
2022/05/24 01:16:35;;;;;;;9.82;8.80;;;13.70;99.90;;;;;;4937510;28;92621;-36
2022/05/24 01:19:04;;;;;;;10.90;8.27;;;13.60;99.90;;;;;;4937426;28;94720;-36
2022/05/24 01:21:31;;;;;;;13.82;9.75;;;13.60;99.90;;;;;;4937443;28;94845;-35
2022/05/24 01:24:08;;;;;;;13.65;10.32;;;13.60;99.90;;;;;;4937491;28;95144;-36
2022/05/24 01:26:51;;;;;;;10.85;9.73;;;13.50;99.90;;;;;;4936101;28;92330;-35
2022/05/24 01:29:18;;;;;;;12.60;10.95;;;13.50;99.90;;;;;;4937154;28;94659;-36
2022/05/24 01:37:14;;;;;;;14.02;11.57;;;13.40;99.90;;;;;;4936881;28;95244;-34
2022/05/24 01:39:43;;;;;;;15.52;11.80;;;13.40;99.90;;;;;;4936417;28;94820;-35
2022/05/24 01:42:10;;;;;;;14.88;12.20;;;13.40;99.90;;;;;;4936504;28;94573;-37
2022/05/24 01:44:53;;;;;;;13.70;12.27;;;13.40;99.90;;;;;;4936962;28;92120;-33
2022/05/24 01:47:22;;;;;;;15.85;13.15;;;13.30;99.90;;;;;;4936305;28;93505;-34
2022/05/24 01:49:52;;;;;;;13.68;12.27;;;13.30;99.90;;;;;;4935769;28;94727;-38
2022/05/24 01:52:24;;;;;;;15.38;13.13;;;13.40;99.90;;;;;;4936077;28;94739;-35
2022/05/24 01:54:55;;;;;;;14.60;12.48;;;13.30;99.90;;;;;;4936122;28;94356;-37
2022/05/24 01:57:27;;;;;;;16.83;12.45;;;13.30;99.90;;;;;;4936805;28;94511;-36
2022/05/24 01:59:56;;;;;;;14.00;12.40;;;13.30;99.90;;;;;;4935513;28;96047;-37
2022/05/24 02:02:22;;;;;;;15.45;13.00;;;13.20;99.90;;;;;;4936953;28;95952;-38
2022/05/24 02:04:48;;;;;;;14.18;10.43;;;13.20;99.90;;;;;;4936065;28;93812;-37
2022/05/24 02:07:20;;;;;;;18.08;13.48;;;13.20;99.90;;;;;;4936029;28;93095;-39
2022/05/24 02:09:48;;;;;;;13.00;11.68;;;13.20;99.90;;;;;;4935238;28;94700;-35
2022/05/24 02:12:22;;;;;;;14.88;12.18;;;13.10;99.90;;;;;;4935589;28;94750;-35
2022/05/24 02:15:01;;;;;;;12.68;11.50;;;13.10;99.90;;;;;;4936223;28;95210;-37
2022/05/24 02:17:40;;;;;;;12.77;11.52;;;13.10;99.90;;;;;;4936981;28;91736;-34
2022/05/24 02:20:10;;;;;;;16.35;12.18;;;13.10;99.90;;;;;;4935763;28;95992;-34
2022/05/24 02:22:37;;;;;;;12.70;11.30;;;13.10;99.90;;;;;;4935858;28;96589;-35
2022/05/24 02:25:11;;;;;;;13.40;11.93;;;13.00;99.90;;;;;;4935095;28;94197;-36
2022/05/24 02:27:43;;;;;;;16.75;12.93;;;13.00;99.90;;;;;;4936360;28;94609;-35
2022/05/24 02:30:14;;;;;;;15.88;12.68;;;13.10;99.90;;;;;;4936399;28;94961;-35
2022/05/24 02:32:40;;;;;;;15.52;12.98;;;13.10;99.90;;;;;;4935303;28;94352;-35
2022/05/24 02:35:06;;;;;;;16.98;14.30;;;13.20;99.90;;;;;;4936202;28;93055;-35
2022/05/24 02:37:32;;;;;;;23.63;16.15;;;13.20;99.90;;;;;;4935758;28;92506;-36
2022/05/24 02:42:41;;;;;;;23.50;15.48;;;13.30;99.90;;;;;;4939431;28;94767;-36
2022/05/24 02:45:07;;;;;;;17.73;15.93;;;13.30;99.90;;;;;;4927227;28;93130;-33
2022/05/24 02:47:33;;;;;;;18.75;16.88;;;13.30;99.90;;;;;;4919757;28;94337;-36
2022/05/24 02:49:58;;;;;;;17.85;15.93;;;13.30;99.90;;;;;;4932826;28;95738;-35
2022/05/24 02:52:24;;;;;;;20.65;18.55;;;13.30;99.90;;;;;;4920015;28;94462;-36
2022/05/24 02:54:50;;;;;;;24.48;18.23;;;13.30;99.90;;;;;;4919530;28;93226;-34
2022/05/24 02:57:15;;;;;;;22.98;18.75;;;13.40;99.90;;;;;;4919442;28;93233;-34
2022/05/24 02:59:41;;;;;;;27.23;21.30;;;13.40;99.90;;;;;;4919330;28;94914;-34
2022/05/24 03:02:06;;;;;;;24.42;21.73;;;13.40;99.90;;;;;;4919177;28;94467;-35
2022/05/24 03:04:33;;;;;;;27.55;21.58;;;13.30;99.90;;;;;;4920038;28;93123;-36
2022/05/24 03:09:43;;;;;;;28.58;22.52;;;13.40;99.90;;;;;;4918730;28;94735;-37
2022/05/24 03:14:55;;;;;;;26.92;24.02;;;13.40;99.90;;;;;;4918707;28;93143;-34
2022/05/24 03:17:22;;;;;;;30.95;23.17;;;13.50;99.90;;;;;;4919626;28;94657;-35
2022/05/24 03:19:48;;;;;;;30.52;24.08;;;13.50;99.90;;;;;;4919299;28;94730;-36
2022/05/24 03:22:14;;;;;;;29.13;23.92;;;13.50;99.90;;;;;;4918437;28;94897;-37
2022/05/24 03:24:40;;;;;;;30.90;24.80;;;13.50;99.90;;;;;;4919116;28;92138;-36
2022/05/24 03:27:11;;;;;;;29.33;23.95;;;13.50;99.90;;;;;;4919330;28;94897;-36
2022/05/24 03:29:47;;;;;;;28.17;25.08;;;13.50;99.90;;;;;;4919118;28;93934;-35
2022/05/24 03:32:15;;;;;;;30.60;27.33;;;13.50;99.90;;;;;;4918728;28;93388;-37
2022/05/24 03:34:41;;;;;;;27.13;23.52;;;13.60;99.90;;;;;;4918442;28;94428;-37
2022/05/24 03:37:06;;;;;;;33.70;24.45;;;13.60;99.90;;;;;;4919591;28;92442;-36
2022/05/24 03:39:33;;;;;;;27.48;24.48;;;13.60;99.90;;;;;;4917822;28;95589;-33
2022/05/24 03:41:58;;;;;;;35.00;28.58;;;13.70;99.90;;;;;;4918339;28;95393;-37
2022/05/24 03:44:24;;;;;;;29.98;26.23;;;13.70;99.90;;;;;;4919149;28;94466;-35
2022/05/24 03:46:53;;;;;;;31.95;27.52;;;13.70;99.90;;;;;;4918404;28;92640;-35
2022/05/24 03:49:18;;;;;;;;;;;13.70;99.90;;;;;;4917933;28;94606;-34
2022/05/24 03:51:45;;;;;;;34.65;26.25;;;13.80;99.90;;;;;;4920360;28;94032;-34
2022/05/24 03:54:11;;;;;;;32.45;25.73;;;13.70;99.90;;;;;;4919043;28;94202;-34
2022/05/24 03:56:37;;;;;;;31.92;25.65;;;13.80;99.90;;;;;;4918683;28;92451;-38
2022/05/24 03:59:03;;;;;;;31.42;27.90;;;13.80;99.90;;;;;;4918664;28;94817;-36
2022/05/24 04:01:29;;;;;;;29.95;26.60;;;13.90;99.90;;;;;;4917723;28;94423;-37
2022/05/24 04:03:55;;;;;;;31.52;25.35;;;13.80;99.90;;;;;;4918487;28;94077;-37
2022/05/24 04:06:20;;;;;;;36.15;26.17;;;13.90;99.90;;;;;;4918633;28;92392;-35
2022/05/24 04:08:46;;;;;;;26.85;22.73;;;13.90;99.90;;;;;;4918052;28;94790;-34
2022/05/24 04:11:12;;;;;;;28.75;25.50;;;13.90;99.90;;;;;;4918095;28;95696;-35
2022/05/24 04:13:40;;;;;;;32.47;26.65;;;13.90;99.90;;;;;;4917905;28;92174;-34
2022/05/24 04:16:06;;;;;;;;;;;13.90;99.90;;;;;;4918716;28;93157;-36
2022/05/24 04:18:32;;;;;;;26.98;24.05;;;13.90;99.90;;;;;;4920639;28;94535;-35
2022/05/24 04:20:59;;;;;;;33.65;26.92;;;13.90;99.90;;;;;;4917992;28;95084;-36
2022/05/24 04:23:25;;;;;;;32.03;24.70;;;14.00;99.90;;;;;;4918524;28;94314;-37
2022/05/24 04:25:52;;;;;;;30.98;25.63;;;14.00;99.90;;;;;;4917464;28;93957;-36
2022/05/24 04:28:21;;;;;;;28.90;24.70;;;14.00;99.90;;;;;;4917597;28;95871;-33
2022/05/24 04:30:48;;;;;;;27.42;24.02;;;14.00;99.90;;;;;;4917377;28;94462;-35
2022/05/24 04:33:15;;;;;;;28.02;24.90;;;13.90;99.90;;;;;;4918997;28;93197;-35
2022/05/24 04:35:41;;;;;;;25.85;22.38;;;13.90;99.90;;;;;;4917884;28;92636;-34
2022/05/24 04:38:07;;;;;;;26.50;22.90;;;13.90;99.90;;;;;;4917329;28;95241;-34
2022/05/24 04:43:17;;;;;;;26.77;22.80;;;14.00;99.90;;;;;;4918169;28;94140;-38
2022/05/24 04:45:43;;;;;;;32.00;25.55;;;14.00;99.90;;;;;;4918032;28;91434;-38
2022/05/24 04:48:08;;;;;;;24.85;22.25;;;14.00;99.90;;;;;;4917162;28;93524;-36
2022/05/24 04:50:35;;;;;;;29.88;22.45;;;14.00;99.90;;;;;;4917238;28;94051;-36
2022/05/24 04:53:01;;;;;;;30.25;21.90;;;14.00;99.90;;;;;;4918039;28;94069;-35
2022/05/24 04:55:28;;;;;;;28.70;23.42;;;14.00;99.90;;;;;;4918064;28;92654;-35
2022/05/24 04:57:55;;;;;;;27.17;24.23;;;14.10;99.90;;;;;;4917120;28;94760;-35
2022/05/24 05:00:21;;;;;;;27.80;22.85;;;14.10;99.90;;;;;;4917962;28;94556;-36
2022/05/24 05:02:46;;;;;;;31.52;23.48;;;14.10;99.90;;;;;;4917401;28;93603;-34
2022/05/24 05:05:13;;;;;;;27.63;23.85;;;14.10;99.90;;;;;;4915862;28;94408;-34
2022/05/24 05:07:39;;;;;;;28.05;24.80;;;14.10;99.90;;;;;;4917719;28;94999;-37
2022/05/24 05:10:05;;;;;;;27.15;24.20;;;14.20;99.90;;;;;;4917549;28;94935;-36
2022/05/24 05:12:31;;;;;;;30.52;24.17;;;14.20;99.90;;;;;;4915771;28;94018;-35
2022/05/24 05:14:57;;;;;;;33.85;25.42;;;14.10;99.90;;;;;;4917251;28;93068;-36
2022/05/24 05:17:22;;;;;;;29.48;23.00;;;14.20;99.90;;;;;;4916905;28;95877;-35
2022/05/24 05:19:49;;;;;;;32.00;27.88;;;14.20;99.90;;;;;;4917358;28;95902;-35
2022/05/24 05:22:16;;;;;;;29.80;24.20;;;14.20;99.90;;;;;;4917419;28;93056;-38
2022/05/24 05:24:42;;;;;;;26.80;23.88;;;14.20;99.90;;;;;;4916923;28;93684;-36
2022/05/24 05:27:08;;;;;;;34.70;24.70;;;14.20;99.90;;;;;;4917280;28;94579;-38
2022/05/24 05:32:26;;;;;;;30.65;21.88;;;14.10;99.90;;;;;;4934715;28;93129;-34
2022/05/24 05:34:52;;;;;;;25.75;22.63;;;14.00;99.90;;;;;;4955232;28;92674;-38
2022/05/24 05:37:19;;;;;;;28.40;21.65;;;14.00;99.90;;;;;;4955796;28;95278;-35
2022/05/24 05:39:44;;;;;;;37.03;22.48;;;13.90;99.90;;;;;;4955781;28;94465;-34
2022/05/24 05:42:10;;;;;;;30.67;20.35;;;13.90;99.90;;;;;;4955703;28;94582;-35
2022/05/24 05:44:37;;;;;;;22.35;19.77;;;13.90;99.90;;;;;;4955043;28;92229;-34
2022/05/24 05:47:02;;;;;;;27.60;20.17;;;13.80;99.90;;;;;;4955730;28;94853;-34
2022/05/24 05:49:29;;;;;;;25.65;20.70;;;13.90;99.90;;;;;;4953972;28;95245;-40
2022/05/24 05:51:55;;;;;;;27.65;19.75;;;13.90;99.90;;;;;;4955280;28;92375;-35
2022/05/24 05:54:21;;;;;;;23.17;20.00;;;13.90;99.90;;;;;;4956021;28;94497;-34
2022/05/24 05:56:47;;;;;;;25.50;18.85;;;13.90;99.90;;;;;;4955698;28;95221;-35
2022/05/24 05:59:13;;;;;;;29.08;19.90;;;13.90;99.90;;;;;;4943843;28;94217;-36
2022/05/24 06:01:38;;;;;;;28.10;18.63;;;14.00;99.90;;;;;;4953668;28;94601;-34
2022/05/24 06:04:04;;;;;;;24.98;19.77;;;14.00;99.90;;;;;;4952797;28;93417;-34
2022/05/24 06:06:36;;;;;;;27.92;19.42;;;14.00;99.90;;;;;;4952795;28;95607;-35
2022/05/24 06:09:02;;;;;;;28.27;19.85;;;14.00;99.90;;;;;;4954320;28;94551;-34
2022/05/24 06:11:28;;;;;;;24.52;18.05;;;14.00;99.90;;;;;;4953851;28;95869;-35
2022/05/24 06:13:53;;;;;;;23.20;19.20;;;14.00;99.90;;;;;;4955039;28;96690;-38
2022/05/24 06:16:19;;;;;;;26.95;20.38;;;14.00;99.90;;;;;;4956822;28;93611;-35
2022/05/24 06:18:45;;;;;;;23.10;18.00;;;14.00;99.90;;;;;;4956009;28;93657;-38
2022/05/24 06:21:10;;;;;;;22.77;17.65;;;14.10;99.90;;;;;;4956203;28;94269;-36
2022/05/24 06:23:36;;;;;;;28.10;20.48;;;14.10;99.90;;;;;;4956902;28;92481;-35
2022/05/24 06:26:02;;;;;;;25.23;20.67;;;14.00;99.90;;;;;;4956996;28;95104;-38
2022/05/24 06:28:28;;;;;;;26.73;18.98;;;14.00;99.90;;;;;;4956645;28;93648;-36
2022/05/24 06:30:54;;;;;;;28.98;20.77;;;14.00;99.90;;;;;;4956417;28;95593;-38
2022/05/24 06:33:20;;;;;;;26.17;19.20;;;14.00;99.90;;;;;;4957102;28;93767;-35
2022/05/24 06:35:46;;;;;;;24.65;20.25;;;14.00;99.90;;;;;;4956503;28;95405;-35
2022/05/24 06:38:11;;;;;;;23.88;20.50;;;14.00;99.90;;;;;;4956864;28;94632;-35
2022/05/24 06:40:37;;;;;;;27.48;20.92;;;14.00;99.90;;;;;;4956301;28;92964;-38
2022/05/24 06:43:04;;;;;;;26.60;20.10;;;14.10;99.90;;;;;;4956806;28;93252;-35
2022/05/24 06:45:30;;;;;;;25.70;19.83;;;14.20;99.90;;;;;;4956402;28;96182;-34
2022/05/24 06:47:56;;;;;;;29.40;20.48;;;14.30;99.90;;;;;;4956694;28;94422;-36
2022/05/24 06:50:21;;;;;;;30.80;21.40;;;14.30;99.90;;;;;;4956848;28;94902;-36
2022/05/24 06:52:51;;;;;;;26.48;18.90;;;14.30;99.90;;;;;;4955492;28;92518;-38
2022/05/24 06:55:17;;;;;;;24.55;18.63;;;14.20;99.90;;;;;;4955713;28;95566;-39
2022/05/24 06:57:42;;;;;;;30.45;19.23;;;14.20;99.90;;;;;;4955784;28;95599;-37
2022/05/24 07:03:13;;;;;;;26.85;19.02;;;14.20;99.90;;;;;;4955667;28;93398;-34
2022/05/24 07:05:39;;;;;;;32.25;20.63;;;14.10;99.90;;;;;;4956784;28;94425;-36
2022/05/24 07:08:05;;;;;;;24.58;18.35;;;14.10;99.90;;;;;;4955517;28;94625;-40
2022/05/24 07:10:33;;;;;;;21.88;19.58;;;14.00;99.90;;;;;;4956232;28;93213;-36
2022/05/24 07:13:09;;;;;;;25.23;18.85;;;14.00;99.90;;;;;;4956243;28;92711;-37
2022/05/24 07:15:35;;;;;;;22.67;17.08;;;14.00;99.90;;;;;;4956490;28;95174;-39
2022/05/24 07:18:01;;;;;;;24.35;18.42;;;14.00;99.90;;;;;;4955706;28;94468;-33
2022/05/24 07:20:27;;;;;;;25.33;19.88;;;14.00;99.90;;;;;;4956052;28;93794;-35
2022/05/24 07:22:57;;;;;;;25.95;19.77;;;14.10;99.90;;;;;;4956099;28;93280;-36
2022/05/24 07:25:22;;;;;;;23.52;17.40;;;14.10;99.90;;;;;;4956402;28;94752;-37
2022/05/24 07:27:48;;;;;;;28.13;17.35;;;14.20;99.90;;;;;;4955472;28;94558;-37
2022/05/24 07:30:13;;;;;;;25.30;17.40;;;14.20;99.90;;;;;;4956507;28;93056;-35
2022/05/24 07:32:39;;;;;;;20.10;15.48;;;14.10;99.90;;;;;;4955086;28;94481;-35
2022/05/24 07:35:06;;;;;;;20.95;16.38;;;14.10;99.90;;;;;;4955982;28;94533;-35
2022/05/24 07:37:32;;;;;;;20.83;16.38;;;14.10;99.90;;;;;;4956045;28;94454;-36
2022/05/24 07:48:10;;;;;;;19.77;16.23;;;14.10;99.90;;;;;;4949521;28;95629;-38
2022/05/24 07:50:37;;;;;;;27.13;15.70;;;14.20;99.90;;;;;;4944753;28;93937;-34
2022/05/24 07:53:02;;;;;;;27.13;16.25;;;14.20;99.90;;;;;;4947821;28;93530;-35
2022/05/24 07:55:28;;;;;;;24.27;14.50;;;14.20;99.90;;;;;;4955704;28;94481;-34
2022/05/24 07:57:54;;;;;;;20.38;15.18;;;14.20;99.90;;;;;;4938536;28;94485;-36
2022/05/24 08:00:21;;;;;;;21.83;15.85;;;14.30;99.90;;;;;;4937133;28;94353;-34
2022/05/24 08:02:49;;;;;;;23.35;15.25;;;14.30;99.90;;;;;;4936378;28;94078;-34
2022/05/24 08:05:16;;;;;;;16.70;14.70;;;14.20;99.90;;;;;;4935418;28;94607;-36
2022/05/24 08:07:42;;;;;;;21.52;14.52;;;14.30;99.90;;;;;;4934711;28;94484;-38
2022/05/24 08:10:08;;;;;;;19.63;15.27;;;14.30;99.90;;;;;;4935862;28;93983;-34
2022/05/24 08:12:33;;;;;;;22.38;15.68;;;14.30;99.90;;;;;;4935357;28;93049;-35
2022/05/24 08:14:59;;;;;;;20.80;14.57;;;14.40;99.90;;;;;;4936282;28;95739;-37
2022/05/24 08:17:25;;;;;;;16.13;14.23;;;14.40;99.90;;;;;;4934662;28;94246;-37
2022/05/24 08:19:52;;;;;;;15.63;13.50;;;14.50;99.90;;;;;;4936237;28;93948;-36
2022/05/24 08:22:18;;;;;;;18.52;13.75;;;14.50;99.90;;;;;;4936038;28;94282;-34
2022/05/24 08:24:44;;;;;;;18.05;14.07;;;14.60;99.90;;;;;;4935332;28;94725;-37
2022/05/24 08:27:11;;;;;;;15.70;13.02;;;14.90;99.90;;;;;;4935635;28;94937;-38
2022/05/24 08:29:36;;;;;;;17.25;12.77;;;15.10;99.90;;;;;;4935576;28;94196;-34
2022/05/24 08:32:02;;;;;;;19.40;14.13;;;15.20;99.90;;;;;;4935449;28;93376;-33
2022/05/24 08:34:29;;;;;;;18.75;13.48;;;15.10;99.90;;;;;;4934915;28;96087;-35
2022/05/24 08:36:55;;;;;;;17.48;12.73;;;15.20;99.90;;;;;;4934528;28;95494;-34
2022/05/24 08:39:21;;;;;;;23.33;13.57;;;15.10;99.90;;;;;;4935358;28;95004;-37
2022/05/24 08:42:05;;;;;;;14.45;11.18;;;15.00;99.90;;;;;;4935292;28;94270;-35
2022/05/24 08:50:18;;;;;;;15.05;10.52;;;15.10;99.90;;;;;;4934971;28;94314;-36
2022/05/24 08:53:06;;;;;;;17.60;11.85;;;15.30;99.90;;;;;;4935111;28;93691;-39
2022/05/24 08:55:33;;;;;;;12.05;9.82;;;15.50;99.90;;;;;;4935053;28;94664;-34
2022/05/24 08:58:00;;;;;;;15.88;11.25;;;15.30;99.90;;;;;;4935986;28;95179;-38
2022/05/24 09:00:33;;;;;;;13.85;9.80;;;15.40;99.90;;;;;;4935029;28;94824;-36
2022/05/24 09:02:59;;;;;;;14.95;10.80;;;15.70;99.90;;;;;;4935923;28;92146;-39
2022/05/24 09:05:38;;;;;;;13.13;11.25;;;16.20;99.90;;;;;;4934485;28;94129;-35
2022/05/24 09:08:07;;;;;;;17.02;10.73;;;16.60;99.90;;;;;;4934639;28;94877;-35
2022/05/24 09:11:01;;;;;;;13.13;10.48;;;16.90;99.90;;;;;;4935011;28;92868;-34
2022/05/24 09:14:09;;;;;;;14.48;12.05;;;17.00;99.90;;;;;;4919151;28;93005;-37
2022/05/24 09:16:54;;;;;;;12.23;10.05;;;17.30;99.90;;;;;;4934233;28;94767;-35
2022/05/24 09:19:34;;;;;;;10.60;8.43;;;17.40;99.90;;;;;;4935500;28;94705;-34
2022/05/24 09:22:04;;;;;;;12.05;7.93;;;17.70;99.90;;;;;;4936135;28;93541;-34
2022/05/24 09:24:59;;;;;;;11.43;7.88;;;17.60;99.90;;;;;;4936068;28;92139;-38
2022/05/24 09:27:28;;;;;;;11.25;7.68;;;17.70;99.90;;;;;;4935022;28;95501;-39
2022/05/24 09:30:08;;;;;;;;;;;17.30;99.90;;;;;;4935209;28;95290;-37
2022/05/24 09:32:42;;;;;;;7.57;6.80;;;17.10;99.90;;;;;;4937180;28;92090;-35
2022/05/24 09:35:19;;;;;;;7.50;6.60;;;16.90;99.90;;;;;;4934809;28;92555;-35
2022/05/24 09:38:07;;;;;;;6.80;6.10;;;16.80;99.90;;;;;;4935270;28;95027;-36
2022/05/24 09:40:47;;;;;;;8.57;6.72;;;16.80;99.90;;;;;;4935304;28;94422;-36
2022/05/24 09:43:20;;;;;;;7.03;6.40;;;16.50;99.90;;;;;;4935263;28;94254;-38
2022/05/24 09:45:50;;;;;;;8.32;7.45;;;16.30;99.90;;;;;;4935357;28;93411;-34
2022/05/24 09:48:26;;;;;;;8.80;6.97;;;16.10;99.90;;;;;;4935738;28;96246;-36
2022/05/24 09:50:53;;;;;;;11.88;6.55;;;16.00;99.90;;;;;;4938439;28;94455;-37
2022/05/24 09:53:22;;;;;;;6.93;6.30;;;16.00;99.90;;;;;;4936864;28;95851;-34
2022/05/24 09:55:49;;;;;;;8.85;6.38;;;15.80;99.90;;;;;;4938106;28;92245;-38
2022/05/24 09:58:34;;;;;;;8.35;6.40;;;15.80;99.90;;;;;;4938727;28;96027;-37
2022/05/24 10:01:08;;;;;;;12.32;5.97;;;15.70;99.90;;;;;;4938318;28;94387;-36
2022/05/24 10:03:43;;;;;;;6.22;5.68;;;15.90;99.90;;;;;;4938632;28;93710;-37
2022/05/24 10:06:24;;;;;;;6.95;6.18;;;16.00;99.90;;;;;;4938231;28;93582;-36
2022/05/24 10:09:03;;;;;;;10.85;5.57;;;16.00;99.90;;;;;;4937478;28;95075;-36
2022/05/24 10:11:49;;;;;;;7.50;6.63;;;16.10;99.90;;;;;;4938440;28;95306;-34
2022/05/24 10:14:36;;;;;;;7.97;6.50;;;16.10;99.90;;;;;;4938295;28;93180;-35
2022/05/24 10:17:20;;;;;;;9.00;5.75;;;16.20;99.90;;;;;;4938245;28;92593;-35
2022/05/24 10:19:57;;;;;;;7.63;6.93;;;16.30;99.90;;;;;;4937087;28;95448;-37
2022/05/24 10:22:33;;;;;;;7.33;5.97;;;16.50;99.90;;;;;;4937125;28;95055;-38
2022/05/24 10:25:22;;;;;;;6.63;5.18;;;16.90;99.90;;;;;;4938038;28;94683;-38
2022/05/24 10:28:02;;;;;;;10.10;5.22;;;16.90;99.90;;;;;;4937953;28;94188;-37
2022/05/24 10:30:33;;;;;;;6.28;5.60;;;17.00;99.90;;;;;;4937542;28;95024;-35
2022/05/24 10:39:41;;;;;;;6.90;5.78;;;16.80;99.90;;;;;;4938135;28;92955;-38
2022/05/24 10:42:13;;;;;;;2.50;2.30;;;16.60;99.90;;;;;;4950668;28;94699;-40
2022/05/24 10:44:59;;;;;;;1.88;1.77;;;16.40;99.90;;;;;;4956644;28;94017;-35
2022/05/24 10:47:36;;;;;;;1.77;1.67;;;16.30;99.90;;;;;;4956625;28;94666;-36
2022/05/24 10:50:09;;;;;;;5.47;3.22;;;16.20;99.90;;;;;;4956832;28;94708;-38
2022/05/24 10:52:54;;;;;;;6.07;2.60;;;15.80;99.90;;;;;;4956636;28;93436;-37
2022/05/24 10:55:25;;;;;;;4.00;2.67;;;15.70;99.90;;;;;;4957727;28;94943;-35
2022/05/24 10:57:55;;;;;;;4.25;2.03;;;15.40;99.90;;;;;;4956685;28;93454;-36
2022/05/24 11:00:38;;;;;;;1.92;1.67;;;15.20;99.90;;;;;;4956184;28;94797;-35
2022/05/24 11:03:17;;;;;;;1.85;1.75;;;15.00;99.90;;;;;;4955790;28;94806;-36
2022/05/24 11:05:50;;;;;;;2.38;1.50;;;15.10;99.90;;;;;;4955821;28;94416;-39
2022/05/24 11:08:30;;;;;;;1.80;1.70;;;15.20;99.90;;;;;;4957248;28;94905;-34
2022/05/24 11:11:00;;;;;;;3.92;1.80;;;15.40;99.90;;;;;;4956467;28;94103;-36
2022/05/24 11:13:46;;;;;;;2.17;1.88;;;15.50;99.90;;;;;;4955680;28;95725;-39
2022/05/24 11:16:19;;;;;;;2.03;1.92;;;15.70;99.90;;;;;;4957026;28;95446;-34
2022/05/24 11:18:44;;;;;;;2.20;2.00;;;15.60;99.90;;;;;;4957159;28;94227;-37
2022/05/24 11:21:14;;;;;;;2.67;2.47;;;15.30;99.90;;;;;;4956771;28;93867;-35
2022/05/24 11:23:45;;;;;;;2.03;1.92;;;15.00;99.90;;;;;;4956175;28;94775;-36
2022/05/24 11:26:20;;;;;;;6.90;1.70;;;14.90;99.90;;;;;;4956318;28;94835;-38
2022/05/24 11:28:50;;;;;;;2.70;1.23;;;14.80;99.90;;;;;;4936167;28;94334;-38
2022/05/24 11:31:35;;;;;;;0.60;0.60;;;14.50;99.90;;;;;;4946839;28;94363;-36
2022/05/24 11:34:03;;;;;;;4.70;1.20;;;14.40;99.90;;;;;;4944426;28;95218;-38
2022/05/24 11:36:39;;;;;;;2.35;0.88;;;14.40;99.90;;;;;;4956374;28;95586;-36
2022/05/24 11:39:10;;;;;;;2.05;1.08;;;14.30;99.90;;;;;;4942070;28;93585;-34
2022/05/24 11:41:36;;;;;;;1.50;1.27;;;14.10;99.90;;;;;;4937318;28;94092;-33
2022/05/24 11:44:05;;;;;;;4.00;1.88;;;14.20;99.90;;;;;;4936113;28;96053;-37
2022/05/24 11:46:33;;;;;;;2.97;2.20;;;14.30;99.90;;;;;;4936255;28;94742;-34
2022/05/24 11:49:23;;;;;;;;;;;14.30;99.90;;;;;;4936929;28;93137;-36
2022/05/24 11:51:57;;;;;;;3.65;2.50;;;14.30;99.90;;;;;;4908613;28;94796;-35
2022/05/24 11:54:23;;;;;;;2.78;2.58;;;14.30;99.90;;;;;;4937083;28;94869;-36
2022/05/24 11:57:00;;;;;;;3.50;3.13;;;14.30;99.90;;;;;;4936212;28;94084;-36
2022/05/24 11:59:51;;;;;;;3.70;3.40;;;14.30;99.90;;;;;;4936083;28;94944;-39
2022/05/24 12:02:19;;;;;;;3.65;2.80;;;14.30;99.90;;;;;;4936778;28;93223;-35
2022/05/24 12:07:56;;;;;;;3.53;3.17;;;14.50;99.90;;;;;;4935865;28;95397;-38
2022/05/24 12:10:22;;;;;;;3.63;3.05;;;14.50;99.90;;;;;;4936190;28;94045;-34
2022/05/24 12:12:57;;;;;;;3.13;2.88;;;14.60;99.90;;;;;;4936086;28;94269;-37
2022/05/24 12:15:47;;;;;;;3.38;3.15;;;14.60;99.90;;;;;;4936763;28;95347;-36
2022/05/24 12:18:20;;;;;;;4.82;3.25;;;14.60;99.90;;;;;;4945514;28;94550;-35
2022/05/24 12:20:46;;;;;;;3.45;3.22;;;14.80;99.90;;;;;;4958076;28;94119;-38
2022/05/24 12:23:32;;;;;;;3.03;2.78;;;15.10;99.90;;;;;;4957890;28;93830;-37
2022/05/24 12:26:03;;;;;;;3.42;3.15;;;15.10;99.90;;;;;;4957625;28;94877;-36
2022/05/24 12:28:37;;;;;;;3.88;3.47;;;15.50;99.90;;;;;;4957279;28;94049;-36
2022/05/24 12:31:17;;;;;;;3.08;2.88;;;15.80;99.90;;;;;;4957976;28;93664;-35
2022/05/24 12:33:46;;;;;;;2.45;2.15;;;16.00;99.90;;;;;;4957024;28;95538;-39
2022/05/24 12:36:34;;;;;;;2.25;2.05;;;15.90;99.90;;;;;;4958004;28;95134;-35
2022/05/24 12:39:06;;;;;;;;;;;15.90;99.90;;;;;;4957518;28;94926;-37
2022/05/24 12:41:56;;;;;;;5.68;2.45;;;16.00;99.90;;;;;;4959040;28;92563;-33
2022/05/24 12:44:30;;;;;;;3.15;1.65;;;16.30;99.90;;;;;;4957545;28;93238;-37
2022/05/24 12:47:14;;;;;;;2.08;1.88;;;16.50;99.90;;;;;;4957321;28;94771;-35
2022/05/24 12:49:49;;;;;;;2.60;1.85;;;16.70;99.90;;;;;;4982984;22;94321;-36
2022/05/24 12:52:30;;;;;;;5.18;1.80;;;16.60;99.90;;;;;;4918232;28;94906;-39
2022/05/24 12:55:02;;;;;;;4.00;2.38;;;16.70;99.90;;;;;;4917948;28;94650;-34
2022/05/24 12:57:40;;;;;;;2.88;1.85;;;16.50;99.90;;;;;;4917998;28;95788;-36
2022/05/24 13:00:10;;;;;;;1.58;1.48;;;16.50;99.90;;;;;;4918409;28;95338;-36
2022/05/24 13:02:44;;;;;;;1.48;1.38;;;16.70;99.90;;;;;;4918298;28;93222;-36
2022/05/24 13:05:15;;;;;;;2.25;1.73;;;16.50;99.90;;;;;;4918730;28;93051;-35
2022/05/24 13:07:43;;;;;;;1.92;1.65;;;16.50;99.90;;;;;;4917524;28;94852;-34
2022/05/24 13:10:21;;;;;;;2.33;1.55;;;16.50;99.90;;;;;;4918641;28;94642;-36
2022/05/24 13:12:49;;;;;;;;;;;16.80;99.90;;;;;;4918869;28;92125;-35
2022/05/24 13:15:18;;;;;;;2.20;1.97;;;16.80;99.90;;;;;;4920389;28;92265;-36
2022/05/24 13:17:46;;;;;;;1.67;1.58;;;16.50;99.90;;;;;;4917883;28;95076;-36
2022/05/24 13:20:11;;;;;;;;;;;16.30;99.90;;;;;;4918421;28;95501;-37
2022/05/24 13:22:48;;;;;;;4.10;1.98;;;16.10;99.90;;;;;;4919283;28;93571;-36
2022/05/24 13:25:18;;;;;;;3.50;1.40;;;15.70;99.90;;;;;;4918940;28;92226;-34
2022/05/24 13:28:02;;;;;;;1.50;1.13;;;15.50;99.90;;;;;;4917915;28;94704;-36
2022/05/24 13:33:34;;;;;;;2.10;1.33;;;15.50;99.90;;;;;;4917665;28;94489;-35
2022/05/24 13:36:18;;;;;;;1.40;1.30;;;15.30;99.90;;;;;;4918870;28;93132;-35
2022/05/24 13:38:46;;;;;;;3.35;1.42;;;15.20;99.90;;;;;;4917216;28;93591;-34
2022/05/24 13:41:25;;;;;;;4.75;1.33;;;15.40;99.90;;;;;;4917932;28;94419;-36
2022/05/24 13:44:22;;;;;;;2.00;1.90;;;16.00;99.90;;;;;;4918098;28;92874;-35